LSNO2: Neosho River nr Langley (Spillway)

Data processed at Fri Dec 08 2017 23:12


All information presented herein is the property of the government of the United States of America and may be revised or deleted at any time without prior notice.
Dissemination of this information without the expressed written consent of the Public Affairs Office, Tulsa District U.S. Army Corps of Engineers is strictly prohibited.
These data are gathered electronically and, as presented, have not undergone any form of quality control. These data are not guaranteed to be valid or correct.
Go to home page.
Go to station list.

Upstream stations:

Downstream station:
Previous Day
Next Day
Current Day
    
SHEF ID:       LSNO2     Neosho River (spillway) near Lan
STATION TYPE:  

                STAGE  RIV-FLOW  BAT-LOAD
                   ft       cfs      volt
              Ccp-Rev   Ccp-Rev   Ccp-Rev
(US/Central)
12/06 00:00     12.62     14790     12.57
12/06 01:00     12.65     14925     12.57
12/06 02:00     12.45     14025     12.49
12/06 03:00     12.46     14070     12.49
12/06 04:00     12.72     15240     12.49
12/06 05:00     12.81     15645     12.49
12/06 06:00     12.80     15600     12.49
12/06 07:00     12.36     13620     12.41
12/06 08:00     12.69     15105     12.41
12/06 09:00     12.74     15330     12.65
12/06 10:00     12.99     16455     13.21
12/06 11:00     12.86     15870     13.37
12/06 12:00     12.78     15510     13.53
12/06 13:00     12.56     14520     13.60
12/06 14:00     12.82     15690     13.53
12/06 15:00     12.82     15690     13.53
12/06 16:00     13.01     16547     13.37
12/06 17:00     12.64     14880     13.13
12/06 18:00     12.53     14385     12.89
12/06 19:00     12.75     15375     12.81
12/06 20:00     12.95     16275     12.81
12/06 21:00     12.65     14925     12.73
12/06 22:00     12.63     14835     12.73
12/06 23:00     12.80     15600     12.73